Time;durP1;ratioP1;P1;durP2;ratioP2;P2;SDS_P1;SDS_P2;PMS_P1;PMS_P2;Temp;Humidity;BMP_temperature;BMP_pressure;BME280_temperature;BME280_humidity;BME280_pressure;Samples;Min_cycle;Max_cycle;Signal;HPM_P1;HPM_P2
2021/04/15 02:47:41;;;;;;;9.75;6.68;;;4.00;99.90;;;;;;4896443;23;91515;-89
2021/04/15 02:50:10;;;;;;;8.70;6.10;;;4.00;99.90;;;;;;4869692;29;96135;-88
2021/04/15 02:52:41;;;;;;;9.77;7.22;;;4.00;99.90;;;;;;4873705;29;92695;-89
2021/04/15 02:55:30;;;;;;;10.05;7.78;;;4.00;99.90;;;;;;4853900;29;91323;-89
2021/04/15 02:58:04;;;;;;;11.13;7.20;;;3.90;99.90;;;;;;4857873;29;91586;-88
2021/04/15 03:00:46;;;;;;;10.00;6.55;;;3.90;99.90;;;;;;4860475;29;93592;-89
2021/04/15 03:03:15;;;;;;;11.35;7.53;;;3.90;99.90;;;;;;4860379;29;94167;-89
2021/04/15 03:05:53;;;;;;;10.93;6.65;;;3.90;99.90;;;;;;4870718;29;91778;-89
2021/04/15 03:08:23;;;;;;;8.77;6.60;;;3.80;99.90;;;;;;4862158;28;91900;-89
2021/04/15 03:11:04;;;;;;;8.55;7.00;;;3.80;99.90;;;;;;4871697;28;95305;-88
2021/04/15 03:13:39;;;;;;;12.07;7.10;;;3.80;99.90;;;;;;4857688;29;94887;-89
2021/04/15 03:16:06;;;;;;;11.52;7.25;;;3.70;99.90;;;;;;4852835;29;91963;-88
2021/04/15 03:22:11;;;;;;;10.65;7.20;;;3.60;99.90;;;;;;4850515;29;91970;-89
2021/04/15 03:24:42;;;;;;;11.27;7.45;;;3.40;99.90;;;;;;4840066;29;95744;-89
2021/04/15 03:27:39;;;;;;;;;;;3.40;99.90;;;;;;4853247;29;91474;-89
2021/04/15 03:30:10;;;;;;;8.18;6.18;;;3.30;99.90;;;;;;4870266;29;92163;-90
2021/04/15 03:32:37;;;;;;;11.65;7.50;;;;;;;;;;4858498;29;92496;-88
2021/04/15 03:35:11;;;;;;;11.95;7.38;;;3.20;99.90;;;;;;4852286;29;93771;-89
2021/04/15 03:37:45;;;;;;;10.63;7.53;;;3.20;99.90;;;;;;4872384;29;91225;-88
2021/04/15 03:40:13;;;;;;;10.43;7.00;;;3.20;99.90;;;;;;4873217;29;91423;-89
2021/04/15 03:42:47;;;;;;;15.23;7.97;;;3.20;99.90;;;;;;4867184;29;93323;-87
2021/04/15 03:45:20;;;;;;;13.82;8.45;;;3.20;99.90;;;;;;4875039;28;92421;-89
2021/04/15 03:48:11;;;;;;;12.60;7.78;;;3.20;99.90;;;;;;4735006;29;92053;-89
2021/04/15 03:51:15;;;;;;;12.27;7.77;;;3.20;99.90;;;;;;4740934;29;91728;-89
2021/04/15 03:54:08;;;;;;;11.20;7.13;;;3.10;99.90;;;;;;4739292;29;92774;-88
2021/04/15 04:03:22;;;;;;;10.80;8.27;;;3.00;99.90;;;;;;4723073;29;91901;-89
2021/04/15 04:06:14;;;;;;;9.73;7.47;;;2.90;99.90;;;;;;4762545;29;92482;-89
2021/04/15 04:08:45;;;;;;;13.75;8.30;;;2.90;99.90;;;;;;4819445;29;91668;-89
2021/04/15 04:11:15;;;;;;;14.27;8.63;;;2.90;99.90;;;;;;4833249;29;91628;-89
2021/04/15 04:16:52;;;;;;;12.70;8.65;;;2.90;99.90;;;;;;4829883;29;92366;-89
2021/04/15 04:19:18;;;;;;;14.63;7.97;;;;;;;;;;4815067;29;94364;-88
2021/04/15 04:21:59;;;;;;;14.18;9.05;;;2.90;99.90;;;;;;4839412;29;91883;-88
2021/04/15 04:24:47;;;;;;;17.85;10.20;;;2.90;99.90;;;;;;4826266;29;91960;-88
2021/04/15 04:27:23;;;;;;;11.50;8.73;;;2.90;99.90;;;;;;4831396;29;92911;-88
2021/04/15 04:29:55;;;;;;;12.63;8.35;;;3.00;99.90;;;;;;4830527;29;92580;-88
2021/04/15 04:32:23;;;;;;;13.88;8.57;;;3.00;99.90;;;;;;4816772;29;91183;-90
2021/04/15 04:34:55;;;;;;;11.43;8.23;;;2.90;99.90;;;;;;4833143;29;91747;-89
2021/04/15 04:37:42;;;;;;;12.95;9.45;;;3.10;99.90;;;;;;4832510;29;93460;-89
2021/04/15 04:40:25;;;;;;;16.45;9.60;;;3.00;99.90;;;;;;4825545;29;92687;-89
2021/04/15 04:42:55;;;;;;;15.70;9.30;;;3.20;99.90;;;;;;4815897;29;92005;-89
2021/04/15 04:53:22;;;;;;;18.45;9.50;;;;;;;;;;4883051;28;91918;-89
2021/04/15 04:56:10;;;;;;;13.20;8.88;;;3.50;99.90;;;;;;4888222;28;92015;-85
2021/04/15 04:58:36;;;;;;;11.93;8.15;;;3.60;99.90;;;;;;4870321;28;93675;-83
2021/04/15 05:01:03;;;;;;;11.77;8.60;;;3.60;99.90;;;;;;4879212;28;92399;-85
2021/04/15 05:03:31;;;;;;;14.93;9.50;;;3.70;99.90;;;;;;4881234;28;92296;-86
2021/04/15 05:06:02;;;;;;;12.82;9.23;;;3.70;99.90;;;;;;4885989;28;92808;-86
2021/04/15 05:08:33;;;;;;;12.38;9.25;;;3.80;99.90;;;;;;4870212;28;94505;-89
2021/04/15 05:11:00;;;;;;;14.60;9.85;;;;;;;;;;4870317;28;93002;-89
2021/04/15 05:13:29;;;;;;;11.32;8.40;;;3.90;99.90;;;;;;4872151;28;91623;-87
2021/04/15 05:16:00;;;;;;;12.70;8.20;;;4.10;99.90;;;;;;4868812;28;92157;-87
2021/04/15 05:18:26;;;;;;;11.05;8.27;;;4.10;99.90;;;;;;4885221;28;93287;-86
2021/04/15 05:21:03;;;;;;;11.25;7.95;;;4.20;99.90;;;;;;4881158;28;92128;-87
2021/04/15 05:23:49;;;;;;;11.30;8.45;;;4.30;99.90;;;;;;4883097;28;91437;-86
2021/04/15 05:26:22;;;;;;;10.70;7.70;;;4.40;99.90;;;;;;4884405;28;92167;-87
2021/04/15 05:28:50;;;;;;;12.18;8.77;;;4.50;99.90;;;;;;4880082;28;91926;-86
2021/04/15 05:31:20;;;;;;;11.27;8.10;;;4.60;99.90;;;;;;4887186;28;94097;-87
2021/04/15 05:33:46;;;;;;;11.00;8.43;;;4.80;99.90;;;;;;4886683;28;91537;-86
2021/04/15 05:36:37;;;;;;;11.68;8.38;;;4.90;99.90;;;;;;4894963;28;92189;-87
2021/04/15 05:39:08;;;;;;;9.98;7.00;;;5.00;99.90;;;;;;4892378;28;92368;-86
2021/04/15 05:41:50;;;;;;;11.13;7.55;;;5.10;99.90;;;;;;4874604;28;93751;-88
2021/04/15 05:44:40;;;;;;;12.02;8.55;;;5.20;99.90;;;;;;4879443;28;92111;-85
2021/04/15 05:47:26;;;;;;;10.15;7.78;;;5.30;99.90;;;;;;4869503;28;92182;-87
2021/04/15 05:50:02;;;;;;;10.23;7.07;;;5.30;99.90;;;;;;4867919;29;91395;-86
2021/04/15 05:52:37;;;;;;;9.43;7.05;;;5.30;99.90;;;;;;4857274;29;93599;-87
2021/04/15 05:55:08;;;;;;;13.77;8.55;;;5.30;99.90;;;;;;4861320;29;92136;-88
2021/04/15 05:57:49;;;;;;;12.52;8.13;;;5.30;99.90;;;;;;4858595;29;92851;-88
2021/04/15 06:00:19;;;;;;;12.48;9.02;;;5.20;99.90;;;;;;4866589;29;93451;-88
2021/04/15 06:03:00;;;;;;;10.85;8.38;;;5.20;99.90;;;;;;4863500;29;92392;-88
2021/04/15 06:05:55;;;;;;;14.25;8.75;;;5.20;99.90;;;;;;4866215;29;91799;-87
2021/04/15 06:08:22;;;;;;;10.55;8.85;;;5.20;99.90;;;;;;4870493;29;91768;-88
2021/04/15 06:10:51;;;;;;;14.30;10.60;;;5.20;99.90;;;;;;4855047;29;93654;-87
2021/04/15 06:13:25;;;;;;;11.98;9.13;;;5.20;99.90;;;;;;4878222;28;92073;-87
2021/04/15 06:15:54;;;;;;;13.35;8.05;;;5.10;99.90;;;;;;4876822;29;92111;-88
2021/04/15 06:18:34;;;;;;;12.82;7.88;;;5.10;99.90;;;;;;4878215;29;91337;-87
2021/04/15 06:21:19;;;;;;;11.55;7.60;;;5.20;99.90;;;;;;4877625;28;92496;-86
2021/04/15 06:24:07;;;;;;;10.20;7.95;;;5.20;99.90;;;;;;4869968;29;92519;-87
2021/04/15 06:26:43;;;;;;;10.70;8.27;;;5.30;99.90;;;;;;4841382;29;91927;-88
2021/04/15 06:29:27;;;;;;;12.75;8.10;;;5.30;99.90;;;;;;4868761;29;92001;-87
2021/04/15 06:31:57;;;;;;;13.55;8.75;;;5.40;99.90;;;;;;4855764;29;93931;-87
2021/04/15 06:34:24;;;;;;;9.93;7.68;;;5.50;99.90;;;;;;4859626;29;92403;-88
2021/04/15 06:37:19;;;;;;;11.40;8.52;;;5.70;99.90;;;;;;4865918;29;91945;-87
2021/04/15 06:39:50;;;;;;;14.25;8.65;;;5.80;99.90;;;;;;4858758;29;91827;-87
2021/04/15 06:42:26;;;;;;;;;;;5.90;99.90;;;;;;4863602;28;91979;-88
2021/04/15 06:45:11;;;;;;;10.75;7.63;;;6.10;99.90;;;;;;4870386;28;91385;-88
2021/04/15 06:47:43;;;;;;;13.68;7.93;;;6.30;99.90;;;;;;4840658;29;91907;-88
2021/04/15 06:50:34;;;;;;;10.55;7.80;;;6.60;99.90;;;;;;4851779;29;92871;-89
2021/04/15 06:53:09;;;;;;;10.48;7.78;;;6.90;99.70;;;;;;4851221;29;92449;-89
2021/04/15 06:55:50;;;;;;;12.80;8.27;;;7.20;98.90;;;;;;4866807;29;92352;-88
2021/04/15 06:58:28;;;;;;;9.68;8.10;;;7.40;98.10;;;;;;4861525;29;92109;-89
2021/04/15 07:01:05;;;;;;;11.40;8.27;;;7.70;97.00;;;;;;4847768;29;91916;-89
2021/04/15 07:03:44;;;;;;;10.68;7.70;;;7.80;95.60;;;;;;4840530;29;94216;-90
2021/04/15 07:06:13;;;;;;;10.40;7.50;;;7.70;95.60;;;;;;4868834;29;92070;-86
2021/04/15 07:08:56;;;;;;;9.00;7.93;;;7.90;95.40;;;;;;4861582;29;91019;-87
2021/04/15 07:11:43;;;;;;;11.57;8.20;;;8.00;93.80;;;;;;4862758;29;92272;-87
2021/04/15 07:14:40;;;;;;;12.02;8.30;;;7.90;93.50;;;;;;4866136;29;93127;-87
2021/04/15 07:17:30;;;;;;;11.45;8.25;;;8.10;92.70;;;;;;4865115;28;93068;-87
2021/04/15 07:20:43;;;;;;;10.95;8.07;;;8.10;92.80;;;;;;4858562;28;92008;-86
2021/04/15 07:23:31;;;;;;;8.90;7.65;;;8.40;91.10;;;;;;4815697;29;92256;-87
2021/04/15 07:26:12;;;;;;;10.18;7.95;;;8.60;92.00;;;;;;4867810;29;91917;-87
2021/04/15 07:29:07;;;;;;;10.43;7.60;;;9.10;90.50;;;;;;4866886;28;92902;-86
2021/04/15 07:31:59;;;;;;;10.63;9.05;;;9.70;87.90;;;;;;4870143;28;92028;-87
2021/04/15 07:35:03;;;;;;;10.20;7.65;;;10.20;82.50;;;;;;4859736;28;92083;-86
2021/04/15 07:38:06;;;;;;;10.70;8.02;;;10.50;76.90;;;;;;4863392;29;92089;-87
2021/04/15 07:40:31;;;;;;;10.55;8.07;;;10.10;76.30;;;;;;4852964;29;91991;-86
2021/04/15 07:43:25;;;;;;;9.07;7.05;;;10.00;77.10;;;;;;4869822;28;91697;-87
2021/04/15 07:46:02;;;;;;;9.63;7.10;;;9.90;73.90;;;;;;4883060;28;92448;-87
2021/04/15 07:49:00;;;;;;;9.65;7.38;;;9.80;73.20;;;;;;4854355;29;92293;-86
2021/04/15 07:51:39;;;;;;;10.30;8.00;;;9.40;73.10;;;;;;4861367;29;93100;-86
2021/04/15 07:54:32;;;;;;;9.18;7.95;;;9.40;74.90;;;;;;4865026;28;92425;-86
2021/04/15 07:57:33;;;;;;;8.77;7.47;;;9.80;76.00;;;;;;4862155;28;91984;-87
2021/04/15 08:00:17;;;;;;;8.80;7.60;;;10.30;71.60;;;;;;4846795;28;92821;-87
2021/04/15 08:03:00;;;;;;;8.95;7.50;;;11.00;70.80;;;;;;4857395;29;92012;-87
2021/04/15 08:06:02;;;;;;;11.25;8.00;;;11.90;69.80;;;;;;4866141;29;90795;-88
2021/04/15 08:09:01;;;;;;;8.77;7.72;;;13.80;65.80;;;;;;4874125;28;91865;-87
2021/04/15 08:11:51;;;;;;;13.55;6.93;;;15.40;55.50;;;;;;4876173;29;92111;-87
2021/04/15 08:14:35;;;;;;;8.88;6.70;;;16.90;47.40;;;;;;4878338;29;92295;-87
2021/04/15 08:17:34;;;;;;;8.00;7.10;;;17.80;44.70;;;;;;4880249;28;91302;-86
2021/04/15 08:20:14;;;;;;;8.38;7.57;;;17.10;46.30;;;;;;4865811;28;92112;-87
2021/04/15 08:23:15;;;;;;;7.22;6.47;;;17.20;46.90;;;;;;4862209;29;91922;-87
2021/04/15 08:26:00;;;;;;;8.60;6.80;;;18.00;44.60;;;;;;4871524;28;93302;-87
2021/04/15 08:28:57;;;;;;;6.97;6.28;;;18.00;42.70;;;;;;4870968;28;92045;-87
2021/04/15 08:32:02;;;;;;;7.35;6.00;;;17.50;41.70;;;;;;4865585;29;92171;-87
2021/04/15 08:35:09;;;;;;;7.53;6.47;;;18.00;43.00;;;;;;4861306;29;92467;-87
2021/04/15 08:37:59;;;;;;;11.25;6.95;;;19.60;40.50;;;;;;4858569;29;91341;-87
2021/04/15 08:40:57;;;;;;;8.10;6.70;;;20.70;37.90;;;;;;4852364;28;91954;-87
2021/04/15 08:43:39;;;;;;;7.55;6.53;;;22.70;35.80;;;;;;4860874;29;93036;-87
2021/04/15 08:46:45;;;;;;;8.85;7.57;;;23.50;34.40;;;;;;4857667;29;92813;-88
2021/04/15 08:49:19;;;;;;;8.98;7.40;;;22.90;33.10;;;;;;4865468;29;92275;-87
2021/04/15 08:52:00;;;;;;;7.68;6.47;;;22.30;34.00;;;;;;4861589;29;92023;-87
2021/04/15 08:54:26;;;;;;;7.63;6.93;;;22.30;34.30;;;;;;4860355;29;92420;-87
2021/04/15 08:57:00;;;;;;;7.88;6.70;;;22.00;33.60;;;;;;4847155;29;93616;-88
2021/04/15 08:59:44;;;;;;;7.32;6.63;;;21.20;33.40;;;;;;4862169;29;92326;-88
2021/04/15 09:02:27;;;;;;;6.68;6.07;;;20.90;34.70;;;;;;4861465;29;91663;-88
2021/04/15 09:05:13;;;;;;;6.95;6.10;;;22.10;33.00;;;;;;4859589;29;91877;-87
2021/04/15 09:08:02;;;;;;;6.57;5.97;;;22.40;32.80;;;;;;4864394;29;93579;-87
2021/04/15 09:10:54;;;;;;;6.80;6.20;;;23.30;31.50;;;;;;4853972;28;94143;-89
2021/04/15 09:13:55;;;;;;;6.72;5.95;;;24.70;29.90;;;;;;4870966;28;92091;-88
2021/04/15 09:16:39;;;;;;;6.93;6.10;;;24.60;29.70;;;;;;4857098;29;92101;-87
2021/04/15 09:19:33;;;;;;;4.30;3.88;;;23.50;29.10;;;;;;4859311;29;93103;-87
2021/04/15 09:22:26;;;;;;;6.35;5.75;;;18.60;34.60;;;;;;4865626;28;92556;-87
2021/04/15 09:24:59;;;;;;;7.15;5.60;;;15.80;38.90;;;;;;4862687;28;91421;-87
2021/04/15 09:28:01;;;;;;;6.20;5.45;;;16.30;37.40;;;;;;4858315;29;91945;-87
2021/04/15 09:30:27;;;;;;;5.93;5.32;;;17.20;38.60;;;;;;4851028;29;91250;-87
2021/04/15 09:33:11;;;;;;;6.18;5.43;;;19.40;35.90;;;;;;4867483;28;91973;-87
2021/04/15 09:35:49;;;;;;;5.50;4.90;;;21.60;34.80;;;;;;4865865;29;91995;-86
2021/04/15 09:38:19;;;;;;;6.03;5.45;;;24.10;30.40;;;;;;4864169;29;92912;-86
2021/04/15 09:41:23;;;;;;;7.70;4.85;;;26.10;29.00;;;;;;4871839;28;92340;-88
2021/04/15 09:44:10;;;;;;;5.93;5.32;;;27.50;27.40;;;;;;4786407;29;93313;-87
2021/04/15 09:46:48;;;;;;;6.18;5.50;;;27.80;28.40;;;;;;4804922;29;92254;-88
2021/04/15 09:49:37;;;;;;;6.90;5.55;;;28.70;27.00;;;;;;4842187;29;91931;-88
2021/04/15 09:52:18;;;;;;;6.13;5.57;;;29.00;26.40;;;;;;4847063;29;92541;-86
2021/04/15 09:54:46;;;;;;;32.97;16.77;;;28.00;26.20;;;;;;4861321;29;92436;-86
2021/04/15 09:57:24;;;;;;;9.90;8.35;;;24.50;27.60;;;;;;4858447;29;91226;-87
2021/04/15 10:00:32;;;;;;;11.80;7.90;;;23.00;29.00;;;;;;4868651;28;92114;-87
2021/04/15 10:03:00;;;;;;;11.02;7.72;;;21.30;29.70;;;;;;4865481;28;93241;-87
2021/04/15 10:05:44;;;;;;;8.13;6.63;;;19.70;31.20;;;;;;4859005;28;92552;-87
2021/04/15 10:08:37;;;;;;;15.10;8.85;;;17.60;33.40;;;;;;4858071;29;91595;-87
2021/04/15 10:11:35;;;;;;;17.38;10.68;;;17.30;34.20;;;;;;4853040;29;92555;-87
2021/04/15 10:14:16;;;;;;;16.27;10.10;;;16.30;36.40;;;;;;4843074;28;92798;-87
2021/04/15 10:16:48;;;;;;;32.20;15.38;;;15.20;36.70;;;;;;4853080;29;92883;-90
2021/04/15 10:19:32;;;;;;;18.10;10.32;;;14.60;37.60;;;;;;4835182;29;93678;-87
2021/04/15 10:22:36;;;;;;;11.52;6.78;;;14.20;38.80;;;;;;4849373;29;92138;-87
2021/04/15 10:25:21;;;;;;;16.95;9.20;;;13.80;39.40;;;;;;4850703;28;93207;-89
2021/04/15 10:28:12;;;;;;;11.90;7.22;;;13.30;40.10;;;;;;4850764;29;92976;-86
2021/04/15 10:31:14;;;;;;;11.40;8.30;;;12.70;41.60;;;;;;4858315;29;91830;-90
2021/04/15 10:34:00;;;;;;;10.05;6.47;;;12.20;42.10;;;;;;4874654;29;92293;-91
2021/04/15 10:36:44;;;;;;;7.65;5.63;;;11.80;42.50;;;;;;4838090;29;94798;-91
2021/04/15 10:39:09;;;;;;;8.70;7.05;;;12.80;48.00;;;;;;4852014;29;92799;-90
2021/04/15 10:41:57;;;;;;;10.77;6.75;;;12.90;42.60;;;;;;4854803;29;92076;-89
2021/04/15 10:44:41;;;;;;;7.95;6.18;;;13.50;41.30;;;;;;4851446;29;91998;-89
2021/04/15 10:47:45;;;;;;;7.65;5.22;;;13.10;42.70;;;;;;4847714;28;92664;-86
2021/04/15 10:50:47;;;;;;;8.95;5.75;;;14.40;41.90;;;;;;4849986;29;94013;-88
2021/04/15 10:53:45;;;;;;;7.00;5.22;;;15.60;39.40;;;;;;4832297;29;91469;-88
2021/04/15 10:56:43;;;;;;;4.88;4.25;;;15.50;38.10;;;;;;4852294;29;92148;-87
2021/04/15 10:59:33;;;;;;;6.53;4.60;;;15.30;37.50;;;;;;4866526;29;92841;-87
2021/04/15 11:02:17;;;;;;;5.00;3.90;;;15.00;38.90;;;;;;4856981;29;92942;-87
2021/04/15 11:04:44;;;;;;;5.72;4.15;;;14.40;38.70;;;;;;4867270;29;92152;-88
2021/04/15 11:07:13;;;;;;;5.15;4.25;;;14.10;38.60;;;;;;4862249;29;92060;-87
2021/04/15 11:09:46;;;;;;;4.20;3.80;;;14.40;38.80;;;;;;4857576;29;92124;-87
2021/04/15 11:12:15;;;;;;;4.90;3.95;;;15.40;37.80;;;;;;4867414;29;92033;-89
2021/04/15 11:14:47;;;;;;;3.50;3.20;;;16.30;36.80;;;;;;4868220;29;92054;-88
2021/04/15 11:17:43;;;;;;;5.05;3.90;;;16.80;35.10;;;;;;4850908;29;91580;-89
2021/04/15 11:20:15;;;;;;;4.22;3.42;;;17.80;34.80;;;;;;4866018;29;91623;-87
2021/04/15 11:22:50;;;;;;;5.53;3.72;;;18.30;32.70;;;;;;4867128;29;91971;-87
2021/04/15 11:25:21;;;;;;;3.65;3.33;;;18.40;32.10;;;;;;4867256;29;92044;-87
2021/04/15 11:27:48;;;;;;;3.88;3.58;;;18.10;33.50;;;;;;4864442;29;94002;-87
2021/04/15 11:30:36;;;;;;;7.30;3.60;;;17.70;32.30;;;;;;4863733;29;92336;-86
2021/04/15 11:33:04;;;;;;;3.63;3.28;;;17.10;33.20;;;;;;4863196;29;93393;-87
2021/04/15 11:35:30;;;;;;;6.28;3.30;;;16.70;33.70;;;;;;4867966;29;91968;-87
2021/04/15 11:38:15;;;;;;;5.78;3.70;;;16.20;34.20;;;;;;4867705;29;92200;-87
2021/04/15 11:40:44;;;;;;;5.50;4.63;;;15.30;34.80;;;;;;4867510;29;92707;-87
2021/04/15 11:43:25;;;;;;;6.85;4.47;;;14.80;35.80;;;;;;4866057;29;92016;-87
2021/04/15 11:45:51;;;;;;;5.47;4.82;;;14.50;36.30;;;;;;4870299;29;91196;-86
2021/04/15 11:48:27;;;;;;;4.75;4.10;;;13.40;37.20;;;;;;4854692;29;93553;-87
2021/04/15 11:51:22;;;;;;;6.07;4.75;;;12.80;38.50;;;;;;4868241;29;93211;-87
2021/04/15 11:53:50;;;;;;;4.28;3.85;;;12.10;40.80;;;;;;4868171;29;92461;-86
2021/04/15 11:56:31;;;;;;;5.78;5.22;;;10.30;46.60;;;;;;4871369;29;92105;-86
2021/04/15 11:59:15;;;;;;;7.03;4.40;;;10.20;47.40;;;;;;4870638;29;91935;-86
2021/04/15 12:01:41;;;;;;;6.45;5.88;;;10.50;54.40;;;;;;4855535;29;93291;-86
2021/04/15 12:04:12;;;;;;;5.38;4.47;;;10.10;50.30;;;;;;4868258;29;92033;-86
2021/04/15 12:06:53;;;;;;;5.07;4.35;;;11.00;49.10;;;;;;4875964;28;92016;-86
2021/04/15 12:09:25;;;;;;;6.20;4.22;;;11.30;46.70;;;;;;4858417;29;92060;-86
2021/04/15 12:12:02;;;;;;;6.13;4.47;;;12.20;45.00;;;;;;4857253;29;92202;-87
2021/04/15 12:14:28;;;;;;;6.50;3.83;;;14.00;42.30;;;;;;4862709;29;92137;-87
2021/04/15 12:16:54;;;;;;;4.57;3.97;;;15.40;39.60;;;;;;4857298;29;92017;-87
2021/04/15 12:19:52;;;;;;;5.93;5.43;;;17.30;38.30;;;;;;4857778;29;92272;-87
2021/04/15 12:22:59;;;;;;;4.07;3.53;;;17.80;33.40;;;;;;4849972;29;92106;-87
2021/04/15 12:25:28;;;;;;;4.88;3.70;;;18.70;33.00;;;;;;4861321;29;91872;-87
2021/04/15 12:28:22;;;;;;;3.92;3.28;;;20.30;31.80;;;;;;4859244;28;92041;-87
2021/04/15 12:30:56;;;;;;;4.15;3.40;;;21.00;31.40;;;;;;4859984;29;92067;-87
2021/04/15 12:33:51;;;;;;;3.60;3.30;;;20.80;29.50;;;;;;4861247;29;93359;-87
2021/04/15 12:36:27;;;;;;;4.65;3.47;;;21.40;28.80;;;;;;4862849;28;92959;-87
2021/04/15 12:39:08;;;;;;;4.15;3.65;;;20.30;30.20;;;;;;4859089;29;91238;-87
2021/04/15 12:41:38;;;;;;;3.58;3.28;;;21.50;28.20;;;;;;4849706;29;91956;-87
2021/04/15 12:44:22;;;;;;;3.50;3.20;;;20.80;29.00;;;;;;4856970;29;92677;-87
2021/04/15 12:46:50;;;;;;;4.28;3.67;;;21.00;28.60;;;;;;4860571;29;92557;-87
2021/04/15 12:49:23;;;;;;;3.35;3.03;;;20.90;28.90;;;;;;4866157;28;91716;-87
2021/04/15 12:51:52;;;;;;;5.10;3.58;;;21.90;27.70;;;;;;4858943;28;92123;-87
2021/04/15 12:54:30;;;;;;;5.40;4.97;;;22.60;27.80;;;;;;4879277;28;94091;-87
2021/04/15 12:56:58;;;;;;;3.40;3.10;;;21.80;27.40;;;;;;4854878;28;92984;-87
2021/04/15 12:59:29;;;;;;;3.75;3.45;;;21.60;26.40;;;;;;4866527;28;92221;-87
2021/04/15 13:01:55;;;;;;;3.72;3.40;;;20.70;26.40;;;;;;4861634;28;91459;-87
2021/04/15 13:04:30;;;;;;;4.13;3.72;;;20.60;28.80;;;;;;4859485;28;91642;-87
2021/04/15 13:07:37;;;;;;;5.38;3.88;;;22.00;27.80;;;;;;4857604;29;92048;-87
2021/04/15 13:10:14;;;;;;;5.53;3.40;;;21.20;27.20;;;;;;4859616;28;91967;-88
2021/04/15 13:12:44;;;;;;;4.43;4.03;;;22.70;27.00;;;;;;4857321;29;93331;-87
2021/04/15 13:15:25;;;;;;;5.10;3.40;;;22.90;27.20;;;;;;4850750;29;92842;-87
2021/04/15 13:17:51;;;;;;;;;;;21.90;27.30;;;;;;4865669;29;93154;-88
2021/04/15 13:20:20;;;;;;;3.50;3.20;;;20.80;28.40;;;;;;4859534;29;92015;-87
2021/04/15 13:23:15;;;;;;;3.83;3.22;;;19.80;29.30;;;;;;4844900;29;92090;-87
2021/04/15 13:25:50;;;;;;;3.78;3.28;;;19.10;30.20;;;;;;4850908;29;92643;-87
2021/04/15 13:28:16;;;;;;;4.47;3.55;;;18.20;31.30;;;;;;4855980;29;92196;-87
2021/04/15 13:30:42;;;;;;;3.65;3.17;;;18.30;32.10;;;;;;4877799;28;91567;-87
2021/04/15 13:33:35;;;;;;;5.65;3.30;;;19.10;30.30;;;;;;4863787;28;92075;-87
2021/04/15 13:36:01;;;;;;;4.50;3.10;;;19.60;29.80;;;;;;4866272;29;92745;-87
2021/04/15 13:38:27;;;;;;;4.47;3.38;;;20.30;29.20;;;;;;4861078;29;92954;-87
2021/04/15 13:40:59;;;;;;;5.00;4.60;;;21.40;28.30;;;;;;4866866;29;91952;-87
2021/04/15 13:43:46;;;;;;;5.78;5.20;;;20.50;28.60;;;;;;4863954;28;92187;-87
2021/04/15 13:46:24;;;;;;;4.03;3.38;;;20.60;28.70;;;;;;4871946;29;92193;-87
2021/04/15 13:49:23;;;;;;;3.70;3.40;;;19.70;29.70;;;;;;4855594;29;92363;-87
2021/04/15 13:51:52;;;;;;;6.75;5.20;;;17.00;31.10;;;;;;4854967;29;91886;-87
2021/04/15 13:54:40;;;;;;;7.85;5.13;;;17.20;33.00;;;;;;4878891;29;91493;-87
2021/04/15 13:57:06;;;;;;;4.95;3.70;;;16.80;32.70;;;;;;4884337;28;91804;-87
2021/04/15 13:59:32;;;;;;;5.97;3.60;;;16.00;35.20;;;;;;4872356;29;94268;-87
2021/04/15 14:02:18;;;;;;;4.10;3.60;;;15.30;34.80;;;;;;4855127;29;92076;-86
2021/04/15 14:04:53;;;;;;;4.22;3.42;;;15.10;36.50;;;;;;4847590;29;92903;-87
2021/04/15 14:07:32;;;;;;;4.63;3.40;;;15.30;36.10;;;;;;4846596;29;94480;-87
2021/04/15 14:10:15;;;;;;;4.78;3.58;;;16.10;36.00;;;;;;4865837;29;92461;-87
2021/04/15 14:13:00;;;;;;;4.07;3.60;;;17.10;34.50;;;;;;4855677;29;92555;-87
2021/04/15 14:15:28;;;;;;;4.60;3.42;;;17.90;34.00;;;;;;4857698;29;91930;-87
2021/04/15 14:18:19;;;;;;;6.72;3.78;;;18.60;32.70;;;;;;4864718;29;91985;-87
2021/04/15 14:20:49;;;;;;;4.05;3.30;;;19.50;31.80;;;;;;4853518;29;92876;-87
2021/04/15 14:23:17;;;;;;;3.73;3.43;;;20.00;31.70;;;;;;4854117;29;91629;-88
2021/04/15 14:25:44;;;;;;;4.05;3.50;;;20.50;30.60;;;;;;4868832;28;92169;-87
2021/04/15 14:28:14;;;;;;;4.05;3.58;;;21.00;29.40;;;;;;4864584;28;91874;-88
2021/04/15 14:30:41;;;;;;;4.30;3.85;;;21.50;29.20;;;;;;4867301;28;92321;-88
2021/04/15 14:33:33;;;;;;;5.43;4.93;;;21.50;28.50;;;;;;4866421;28;92143;-88
2021/04/15 14:35:59;;;;;;;3.95;3.65;;;21.60;27.80;;;;;;4854679;29;92007;-88
2021/04/15 14:38:33;;;;;;;6.07;5.57;;;21.20;27.90;;;;;;4863636;29;93457;-87
2021/04/15 14:41:03;;;;;;;7.32;6.82;;;20.60;27.90;;;;;;4853265;29;95187;-88
2021/04/15 14:43:33;;;;;;;4.63;3.73;;;21.00;28.30;;;;;;4857086;29;91918;-88
2021/04/15 14:46:11;;;;;;;3.10;2.80;;;21.00;28.10;;;;;;4865805;28;91957;-87
2021/04/15 14:48:37;;;;;;;5.20;4.70;;;;;;;;;;4860287;29;91975;-87
2021/04/15 14:51:14;;;;;;;4.30;3.63;;;20.80;27.50;;;;;;4863236;29;91839;-88
2021/04/15 14:53:41;;;;;;;4.70;3.00;;;20.70;28.70;;;;;;4865475;28;91919;-88
2021/04/15 14:56:12;;;;;;;3.50;3.20;;;20.80;28.50;;;;;;4861798;28;93155;-87
2021/04/15 14:58:39;;;;;;;3.63;3.28;;;20.90;28.50;;;;;;4858946;29;93770;-87
2021/04/15 15:01:27;;;;;;;5.05;4.65;;;20.50;27.70;;;;;;4860205;29;92183;-88
2021/04/15 15:03:55;;;;;;;4.25;3.40;;;20.50;27.90;;;;;;4859557;29;92051;-87
2021/04/15 15:06:32;;;;;;;3.70;3.40;;;20.10;28.30;;;;;;4864568;29;92353;-87
2021/04/15 15:08:58;;;;;;;7.22;3.50;;;19.80;28.60;;;;;;4863395;29;93912;-88
2021/04/15 15:11:25;;;;;;;4.78;2.83;;;19.50;29.00;;;;;;4865795;29;92000;-87
2021/04/15 15:13:51;;;;;;;5.68;3.80;;;19.40;29.20;;;;;;4852227;29;91637;-87
2021/04/15 15:16:21;;;;;;;5.20;4.70;;;18.80;28.50;;;;;;4862224;28;91955;-87
2021/04/15 15:18:48;;;;;;;4.10;3.70;;;18.80;29.00;;;;;;4865784;28;92036;-88
2021/04/15 15:21:44;;;;;;;4.70;4.38;;;18.70;29.40;;;;;;4863019;29;93035;-87
2021/04/15 15:24:13;;;;;;;3.88;3.47;;;18.90;29.40;;;;;;4858018;29;92022;-88
2021/04/15 15:26:39;;;;;;;5.25;4.75;;;18.80;29.20;;;;;;4860791;29;93066;-87
2021/04/15 15:29:07;;;;;;;6.50;5.80;;;17.90;30.00;;;;;;4870688;28;93296;-87
2021/04/15 15:31:42;;;;;;;5.70;5.20;;;17.20;30.50;;;;;;4848429;29;92431;-87
2021/04/15 15:34:26;;;;;;;5.97;5.40;;;14.50;34.70;;;;;;4862420;29;92203;-87
2021/04/15 15:36:53;;;;;;;5.88;3.70;;;14.60;35.70;;;;;;4859655;29;92117;-87
2021/04/15 15:39:35;;;;;;;4.65;4.25;;;12.40;40.20;;;;;;4865119;29;91187;-86
2021/04/15 15:42:02;;;;;;;10.45;5.00;;;12.20;40.00;;;;;;4851976;29;91898;-87
2021/04/15 15:44:34;;;;;;;8.02;5.00;;;12.00;40.50;;;;;;4862746;29;91272;-87
2021/04/15 15:47:02;;;;;;;5.75;4.53;;;12.00;41.10;;;;;;4848583;29;92959;-87
2021/04/15 15:49:36;;;;;;;7.13;5.32;;;11.70;42.10;;;;;;4856430;29;92410;-86
2021/04/15 15:52:12;;;;;;;5.45;4.93;;;10.50;43.90;;;;;;4855683;28;92965;-86
2021/04/15 15:54:38;;;;;;;4.68;3.10;;;10.40;44.10;;;;;;4870859;28;92023;-86
2021/04/15 15:57:23;;;;;;;5.30;3.40;;;10.10;44.60;;;;;;4860259;29;92090;-86
2021/04/15 15:59:55;;;;;;;6.85;4.97;;;9.70;45.70;;;;;;4862826;28;92759;-86
2021/04/15 16:02:25;;;;;;;8.15;4.70;;;9.40;46.80;;;;;;4862488;28;92431;-87
2021/04/15 16:04:55;;;;;;;7.72;5.32;;;9.10;46.70;;;;;;4852749;29;91315;-88
2021/04/15 16:07:23;;;;;;;5.13;4.00;;;9.00;46.90;;;;;;4865524;29;91771;-88
2021/04/15 16:10:02;;;;;;;4.53;4.07;;;9.20;46.90;;;;;;4850004;29;94277;-89
2021/04/15 16:12:51;;;;;;;5.13;4.45;;;9.40;45.70;;;;;;4867370;29;93036;-89
2021/04/15 16:15:19;;;;;;;6.22;5.05;;;9.50;44.80;;;;;;4855744;29;92050;-87
2021/04/15 16:17:53;;;;;;;6.25;4.82;;;9.70;45.80;;;;;;4859629;29;91872;-88
2021/04/15 16:20:19;;;;;;;14.38;4.82;;;9.70;44.60;;;;;;4852247;29;92446;-88
2021/04/15 16:22:45;;;;;;;5.90;4.20;;;9.70;44.10;;;;;;4875081;28;92501;-86
2021/04/15 16:25:12;;;;;;;5.22;4.30;;;9.80;44.00;;;;;;4868495;29;92447;-86
2021/04/15 16:27:38;;;;;;;7.20;4.50;;;9.60;43.80;;;;;;4852707;29;92025;-87
2021/04/15 16:30:15;;;;;;;6.45;4.95;;;9.70;44.50;;;;;;4849453;29;91580;-86
2021/04/15 16:32:45;;;;;;;6.40;5.53;;;9.60;43.00;;;;;;4850289;28;93151;-87
2021/04/15 16:35:12;;;;;;;7.70;4.75;;;9.40;43.40;;;;;;4884997;28;91754;-87
2021/04/15 16:37:39;;;;;;;6.15;4.80;;;9.40;43.90;;;;;;4861029;28;92646;-81
2021/04/15 16:40:08;;;;;;;7.72;4.03;;;9.20;44.00;;;;;;4868134;29;92148;-85
2021/04/15 16:42:35;;;;;;;5.22;4.05;;;9.10;44.30;;;;;;4866119;29;94942;-87
2021/04/15 16:45:03;;;;;;;4.07;3.33;;;9.20;44.70;;;;;;4859495;29;91867;-87
2021/04/15 16:47:29;;;;;;;3.88;3.50;;;9.30;43.10;;;;;;4830387;29;92114;-87
2021/04/15 16:49:56;;;;;;;4.80;4.30;;;9.30;43.40;;;;;;4836214;29;93272;-87
2021/04/15 16:52:22;;;;;;;4.93;3.03;;;9.30;46.40;;;;;;4853039;29;92938;-85
2021/04/15 16:54:48;;;;;;;3.97;3.13;;;9.30;47.30;;;;;;4858633;28;91302;-87
2021/04/15 16:57:15;;;;;;;6.47;3.20;;;9.30;47.30;;;;;;4860862;28;92199;-85